sensor_id;sensor_type;location;lat;lon;timestamp;P1;durP1;ratioP1;P2;durP2;ratioP2
70433;SDS011;57876;47.792;12.960;2023-03-05T00:01:48;6.67;;;2.53;;
70433;SDS011;57876;47.792;12.960;2023-03-05T00:04:12;7.03;;;2.73;;
70433;SDS011;57876;47.792;12.960;2023-03-05T00:06:38;7.07;;;2.60;;
70433;SDS011;57876;47.792;12.960;2023-03-05T00:09:03;7.10;;;2.90;;
70433;SDS011;57876;47.792;12.960;2023-03-05T00:11:28;6.95;;;2.58;;
70433;SDS011;57876;47.792;12.960;2023-03-05T00:13:54;6.47;;;2.55;;
70433;SDS011;57876;47.792;12.960;2023-03-05T00:16:19;6.35;;;2.42;;
70433;SDS011;57876;47.792;12.960;2023-03-05T00:18:45;6.73;;;2.70;;
70433;SDS011;57876;47.792;12.960;2023-03-05T00:21:17;6.72;;;2.58;;
70433;SDS011;57876;47.792;12.960;2023-03-05T00:23:50;6.95;;;2.72;;
70433;SDS011;57876;47.792;12.960;2023-03-05T00:26:19;6.97;;;2.60;;
70433;SDS011;57876;47.792;12.960;2023-03-05T00:28:44;6.80;;;2.47;;
70433;SDS011;57876;47.792;12.960;2023-03-05T00:31:13;7.77;;;2.67;;
70433;SDS011;57876;47.792;12.960;2023-03-05T00:33:37;7.03;;;2.63;;
70433;SDS011;57876;47.792;12.960;2023-03-05T00:36:04;7.20;;;2.77;;
70433;SDS011;57876;47.792;12.960;2023-03-05T00:38:29;6.72;;;2.40;;
70433;SDS011;57876;47.792;12.960;2023-03-05T00:40:53;6.57;;;2.90;;
70433;SDS011;57876;47.792;12.960;2023-03-05T00:43:18;7.13;;;2.83;;
70433;SDS011;57876;47.792;12.960;2023-03-05T00:45:42;6.73;;;2.60;;
70433;SDS011;57876;47.792;12.960;2023-03-05T00:48:06;7.63;;;3.00;;
70433;SDS011;57876;47.792;12.960;2023-03-05T00:50:31;6.20;;;2.60;;
70433;SDS011;57876;47.792;12.960;2023-03-05T00:52:55;7.35;;;2.72;;
70433;SDS011;57876;47.792;12.960;2023-03-05T00:55:19;7.47;;;2.80;;
70433;SDS011;57876;47.792;12.960;2023-03-05T00:57:44;7.57;;;2.77;;
70433;SDS011;57876;47.792;12.960;2023-03-05T01:00:09;7.07;;;2.67;;
70433;SDS011;57876;47.792;12.960;2023-03-05T01:02:33;6.82;;;2.70;;
70433;SDS011;57876;47.792;12.960;2023-03-05T01:04:58;6.97;;;2.90;;
70433;SDS011;57876;47.792;12.960;2023-03-05T01:07:22;7.72;;;2.70;;
70433;SDS011;57876;47.792;12.960;2023-03-05T01:09:47;7.20;;;2.77;;
70433;SDS011;57876;47.792;12.960;2023-03-05T01:12:11;6.90;;;2.83;;
70433;SDS011;57876;47.792;12.960;2023-03-05T01:14:35;6.70;;;2.63;;
70433;SDS011;57876;47.792;12.960;2023-03-05T01:17:00;6.97;;;2.55;;
70433;SDS011;57876;47.792;12.960;2023-03-05T01:19:25;7.20;;;2.67;;
70433;SDS011;57876;47.792;12.960;2023-03-05T01:21:49;7.17;;;2.80;;
70433;SDS011;57876;47.792;12.960;2023-03-05T01:24:13;6.30;;;2.85;;
70433;SDS011;57876;47.792;12.960;2023-03-05T01:26:38;7.17;;;2.70;;
70433;SDS011;57876;47.792;12.960;2023-03-05T01:29:02;7.10;;;2.77;;
70433;SDS011;57876;47.792;12.960;2023-03-05T01:31:27;6.97;;;2.93;;
70433;SDS011;57876;47.792;12.960;2023-03-05T01:33:51;7.33;;;2.70;;
70433;SDS011;57876;47.792;12.960;2023-03-05T01:36:17;7.18;;;2.70;;
70433;SDS011;57876;47.792;12.960;2023-03-05T01:38:42;6.68;;;2.83;;
70433;SDS011;57876;47.792;12.960;2023-03-05T01:41:08;6.75;;;2.70;;
70433;SDS011;57876;47.792;12.960;2023-03-05T01:43:33;7.57;;;3.00;;
70433;SDS011;57876;47.792;12.960;2023-03-05T01:49:02;6.63;;;2.80;;
70433;SDS011;57876;47.792;12.960;2023-03-05T01:52:18;6.43;;;2.22;;
70433;SDS011;57876;47.792;12.960;2023-03-05T01:54:27;6.78;;;2.65;;
70433;SDS011;57876;47.792;12.960;2023-03-05T01:56:56;7.22;;;2.90;;
70433;SDS011;57876;47.792;12.960;2023-03-05T01:59:24;7.90;;;3.00;;
70433;SDS011;57876;47.792;12.960;2023-03-05T02:01:52;8.30;;;3.00;;
70433;SDS011;57876;47.792;12.960;2023-03-05T02:04:18;6.50;;;2.88;;
70433;SDS011;57876;47.792;12.960;2023-03-05T02:06:46;7.13;;;2.95;;
70433;SDS011;57876;47.792;12.960;2023-03-05T02:09:12;6.90;;;2.80;;
70433;SDS011;57876;47.792;12.960;2023-03-05T02:11:37;7.03;;;3.10;;
70433;SDS011;57876;47.792;12.960;2023-03-05T02:14:02;7.28;;;2.75;;
70433;SDS011;57876;47.792;12.960;2023-03-05T02:16:28;7.60;;;2.90;;
70433;SDS011;57876;47.792;12.960;2023-03-05T02:18:58;7.17;;;2.60;;
70433;SDS011;57876;47.792;12.960;2023-03-05T02:21:27;7.93;;;3.00;;
70433;SDS011;57876;47.792;12.960;2023-03-05T02:23:59;7.20;;;2.88;;
70433;SDS011;57876;47.792;12.960;2023-03-05T02:26:24;6.97;;;3.03;;
70433;SDS011;57876;47.792;12.960;2023-03-05T02:28:49;7.43;;;2.70;;
70433;SDS011;57876;47.792;12.960;2023-03-05T02:31:22;7.13;;;3.10;;
70433;SDS011;57876;47.792;12.960;2023-03-05T02:33:48;7.78;;;3.00;;
70433;SDS011;57876;47.792;12.960;2023-03-05T02:36:13;7.00;;;3.17;;
70433;SDS011;57876;47.792;12.960;2023-03-05T02:38:38;6.65;;;3.17;;
70433;SDS011;57876;47.792;12.960;2023-03-05T02:41:03;8.17;;;3.50;;
70433;SDS011;57876;47.792;12.960;2023-03-05T02:43:28;7.93;;;3.13;;
70433;SDS011;57876;47.792;12.960;2023-03-05T02:45:52;7.53;;;3.30;;
70433;SDS011;57876;47.792;12.960;2023-03-05T02:48:17;9.17;;;3.20;;
70433;SDS011;57876;47.792;12.960;2023-03-05T02:50:41;7.25;;;2.85;;
70433;SDS011;57876;47.792;12.960;2023-03-05T02:53:06;7.40;;;3.33;;
70433;SDS011;57876;47.792;12.960;2023-03-05T02:55:31;9.93;;;3.35;;
70433;SDS011;57876;47.792;12.960;2023-03-05T02:57:55;7.67;;;3.10;;
70433;SDS011;57876;47.792;12.960;2023-03-05T03:00:20;7.40;;;3.27;;
70433;SDS011;57876;47.792;12.960;2023-03-05T03:02:44;7.65;;;3.60;;
70433;SDS011;57876;47.792;12.960;2023-03-05T03:05:09;7.50;;;3.43;;
70433;SDS011;57876;47.792;12.960;2023-03-05T03:07:33;7.60;;;3.10;;
70433;SDS011;57876;47.792;12.960;2023-03-05T03:09:59;8.32;;;3.38;;
70433;SDS011;57876;47.792;12.960;2023-03-05T03:12:23;8.03;;;2.90;;
70433;SDS011;57876;47.792;12.960;2023-03-05T03:14:48;7.20;;;3.00;;
70433;SDS011;57876;47.792;12.960;2023-03-05T03:17:14;8.07;;;3.10;;
70433;SDS011;57876;47.792;12.960;2023-03-05T03:19:40;7.88;;;3.28;;
70433;SDS011;57876;47.792;12.960;2023-03-05T03:22:05;7.93;;;3.40;;
70433;SDS011;57876;47.792;12.960;2023-03-05T03:24:30;7.65;;;3.10;;
70433;SDS011;57876;47.792;12.960;2023-03-05T03:26:56;8.13;;;3.22;;
70433;SDS011;57876;47.792;12.960;2023-03-05T03:29:20;7.23;;;3.30;;
70433;SDS011;57876;47.792;12.960;2023-03-05T03:31:45;7.83;;;3.30;;
70433;SDS011;57876;47.792;12.960;2023-03-05T03:34:09;8.40;;;3.60;;
70433;SDS011;57876;47.792;12.960;2023-03-05T03:36:35;7.30;;;3.08;;
70433;SDS011;57876;47.792;12.960;2023-03-05T03:38:59;8.17;;;3.10;;
70433;SDS011;57876;47.792;12.960;2023-03-05T03:41:23;8.77;;;3.75;;
70433;SDS011;57876;47.792;12.960;2023-03-05T03:43:48;9.07;;;3.33;;
70433;SDS011;57876;47.792;12.960;2023-03-05T03:46:12;8.13;;;3.47;;
70433;SDS011;57876;47.792;12.960;2023-03-05T03:48:37;9.15;;;3.42;;
70433;SDS011;57876;47.792;12.960;2023-03-05T03:51:05;8.17;;;3.23;;
70433;SDS011;57876;47.792;12.960;2023-03-05T03:53:30;7.97;;;3.50;;
70433;SDS011;57876;47.792;12.960;2023-03-05T03:55:57;7.90;;;3.70;;
70433;SDS011;57876;47.792;12.960;2023-03-05T03:58:22;8.82;;;3.40;;
70433;SDS011;57876;47.792;12.960;2023-03-05T04:00:46;7.97;;;3.20;;
70433;SDS011;57876;47.792;12.960;2023-03-05T04:03:10;8.63;;;3.20;;
70433;SDS011;57876;47.792;12.960;2023-03-05T04:05:35;8.37;;;3.40;;
70433;SDS011;57876;47.792;12.960;2023-03-05T04:07:59;7.87;;;3.30;;
70433;SDS011;57876;47.792;12.960;2023-03-05T04:10:24;7.80;;;3.33;;
70433;SDS011;57876;47.792;12.960;2023-03-05T04:12:49;9.07;;;3.78;;
70433;SDS011;57876;47.792;12.960;2023-03-05T04:15:14;7.03;;;3.27;;
70433;SDS011;57876;47.792;12.960;2023-03-05T04:17:38;9.10;;;3.33;;
70433;SDS011;57876;47.792;12.960;2023-03-05T04:20:03;6.90;;;3.00;;
70433;SDS011;57876;47.792;12.960;2023-03-05T04:22:30;8.98;;;3.53;;
70433;SDS011;57876;47.792;12.960;2023-03-05T04:24:54;6.93;;;3.00;;
70433;SDS011;57876;47.792;12.960;2023-03-05T04:27:18;7.82;;;3.25;;
70433;SDS011;57876;47.792;12.960;2023-03-05T04:29:43;8.20;;;3.40;;
70433;SDS011;57876;47.792;12.960;2023-03-05T04:32:07;7.93;;;3.37;;
70433;SDS011;57876;47.792;12.960;2023-03-05T04:34:32;8.70;;;3.50;;
70433;SDS011;57876;47.792;12.960;2023-03-05T04:36:56;8.00;;;3.40;;
70433;SDS011;57876;47.792;12.960;2023-03-05T04:39:21;7.80;;;3.50;;
70433;SDS011;57876;47.792;12.960;2023-03-05T04:41:46;7.77;;;3.20;;
70433;SDS011;57876;47.792;12.960;2023-03-05T04:44:11;8.35;;;3.58;;
70433;SDS011;57876;47.792;12.960;2023-03-05T04:46:35;8.17;;;3.33;;
70433;SDS011;57876;47.792;12.960;2023-03-05T04:49:00;9.20;;;3.60;;
70433;SDS011;57876;47.792;12.960;2023-03-05T04:51:24;8.00;;;3.83;;
70433;SDS011;57876;47.792;12.960;2023-03-05T04:53:48;8.03;;;3.20;;
70433;SDS011;57876;47.792;12.960;2023-03-05T04:56:13;8.57;;;3.60;;
70433;SDS011;57876;47.792;12.960;2023-03-05T04:58:37;7.87;;;3.27;;
70433;SDS011;57876;47.792;12.960;2023-03-05T05:01:03;7.20;;;2.90;;
70433;SDS011;57876;47.792;12.960;2023-03-05T05:03:29;8.57;;;3.43;;
70433;SDS011;57876;47.792;12.960;2023-03-05T05:05:54;8.70;;;3.47;;
70433;SDS011;57876;47.792;12.960;2023-03-05T05:08:20;8.27;;;3.33;;
70433;SDS011;57876;47.792;12.960;2023-03-05T05:10:45;8.70;;;3.58;;
70433;SDS011;57876;47.792;12.960;2023-03-05T05:13:09;8.93;;;3.50;;
70433;SDS011;57876;47.792;12.960;2023-03-05T05:15:33;8.63;;;3.10;;
70433;SDS011;57876;47.792;12.960;2023-03-05T05:17:58;7.50;;;3.20;;
70433;SDS011;57876;47.792;12.960;2023-03-05T05:20:22;7.97;;;3.00;;
70433;SDS011;57876;47.792;12.960;2023-03-05T05:22:46;8.48;;;3.17;;
70433;SDS011;57876;47.792;12.960;2023-03-05T05:25:11;9.47;;;3.60;;
70433;SDS011;57876;47.792;12.960;2023-03-05T05:27:36;8.37;;;3.57;;
70433;SDS011;57876;47.792;12.960;2023-03-05T05:30:04;9.32;;;3.70;;
70433;SDS011;57876;47.792;12.960;2023-03-05T05:32:29;8.55;;;3.38;;
70433;SDS011;57876;47.792;12.960;2023-03-05T05:34:54;8.43;;;3.70;;
70433;SDS011;57876;47.792;12.960;2023-03-05T05:37:21;8.00;;;3.45;;
70433;SDS011;57876;47.792;12.960;2023-03-05T05:39:45;8.20;;;3.40;;
70433;SDS011;57876;47.792;12.960;2023-03-05T05:42:13;7.50;;;3.42;;
70433;SDS011;57876;47.792;12.960;2023-03-05T05:44:37;8.97;;;3.87;;
70433;SDS011;57876;47.792;12.960;2023-03-05T05:47:01;8.60;;;3.70;;
70433;SDS011;57876;47.792;12.960;2023-03-05T05:49:26;8.50;;;3.77;;
70433;SDS011;57876;47.792;12.960;2023-03-05T05:51:50;8.93;;;4.10;;
70433;SDS011;57876;47.792;12.960;2023-03-05T05:54:15;9.83;;;3.90;;
70433;SDS011;57876;47.792;12.960;2023-03-05T05:56:39;9.73;;;4.03;;
70433;SDS011;57876;47.792;12.960;2023-03-05T05:59:04;11.55;;;4.38;;
70433;SDS011;57876;47.792;12.960;2023-03-05T06:01:29;8.80;;;4.13;;
70433;SDS011;57876;47.792;12.960;2023-03-05T06:03:55;9.85;;;4.50;;
70433;SDS011;57876;47.792;12.960;2023-03-05T06:06:21;10.30;;;4.50;;
70433;SDS011;57876;47.792;12.960;2023-03-05T06:08:46;8.50;;;3.70;;
70433;SDS011;57876;47.792;12.960;2023-03-05T06:11:11;10.70;;;4.50;;
70433;SDS011;57876;47.792;12.960;2023-03-05T06:13:36;8.98;;;4.00;;
70433;SDS011;57876;47.792;12.960;2023-03-05T06:16:02;10.00;;;3.90;;
70433;SDS011;57876;47.792;12.960;2023-03-05T06:18:29;9.10;;;3.92;;
70433;SDS011;57876;47.792;12.960;2023-03-05T06:20:57;9.20;;;4.05;;
70433;SDS011;57876;47.792;12.960;2023-03-05T06:23:23;9.00;;;4.10;;
70433;SDS011;57876;47.792;12.960;2023-03-05T06:25:48;9.63;;;4.47;;
70433;SDS011;57876;47.792;12.960;2023-03-05T06:28:13;9.98;;;4.28;;
70433;SDS011;57876;47.792;12.960;2023-03-05T06:30:37;9.87;;;4.00;;
70433;SDS011;57876;47.792;12.960;2023-03-05T06:33:02;9.20;;;3.80;;
70433;SDS011;57876;47.792;12.960;2023-03-05T06:35:26;9.60;;;3.90;;
70433;SDS011;57876;47.792;12.960;2023-03-05T06:37:50;8.90;;;4.40;;
70433;SDS011;57876;47.792;12.960;2023-03-05T06:40:15;10.10;;;4.30;;
70433;SDS011;57876;47.792;12.960;2023-03-05T06:42:39;9.23;;;4.40;;
70433;SDS011;57876;47.792;12.960;2023-03-05T06:45:04;8.90;;;3.90;;
70433;SDS011;57876;47.792;12.960;2023-03-05T06:47:28;9.88;;;4.28;;
70433;SDS011;57876;47.792;12.960;2023-03-05T06:49:53;9.73;;;4.30;;
70433;SDS011;57876;47.792;12.960;2023-03-05T06:52:17;10.70;;;4.33;;
70433;SDS011;57876;47.792;12.960;2023-03-05T06:54:42;9.40;;;4.40;;
70433;SDS011;57876;47.792;12.960;2023-03-05T06:57:07;9.67;;;4.33;;
70433;SDS011;57876;47.792;12.960;2023-03-05T06:59:33;9.45;;;4.30;;
70433;SDS011;57876;47.792;12.960;2023-03-05T07:01:57;10.20;;;4.13;;
70433;SDS011;57876;47.792;12.960;2023-03-05T07:04:22;9.37;;;4.30;;
70433;SDS011;57876;47.792;12.960;2023-03-05T07:06:47;10.40;;;4.45;;
70433;SDS011;57876;47.792;12.960;2023-03-05T07:09:14;10.17;;;4.40;;
70433;SDS011;57876;47.792;12.960;2023-03-05T07:11:39;9.38;;;4.28;;
70433;SDS011;57876;47.792;12.960;2023-03-05T07:14:04;9.07;;;3.93;;
70433;SDS011;57876;47.792;12.960;2023-03-05T07:16:30;8.90;;;4.30;;
70433;SDS011;57876;47.792;12.960;2023-03-05T07:18:56;8.20;;;4.00;;
70433;SDS011;57876;47.792;12.960;2023-03-05T07:21:22;9.30;;;4.07;;
70433;SDS011;57876;47.792;12.960;2023-03-05T07:23:49;9.75;;;4.50;;
70433;SDS011;57876;47.792;12.960;2023-03-05T07:26:15;10.97;;;4.93;;
70433;SDS011;57876;47.792;12.960;2023-03-05T07:28:40;9.38;;;4.22;;
70433;SDS011;57876;47.792;12.960;2023-03-05T07:31:06;9.30;;;4.38;;
70433;SDS011;57876;47.792;12.960;2023-03-05T07:33:34;9.43;;;4.47;;
70433;SDS011;57876;47.792;12.960;2023-03-05T07:36:00;11.18;;;4.60;;
70433;SDS011;57876;47.792;12.960;2023-03-05T07:38:24;9.73;;;4.15;;
70433;SDS011;57876;47.792;12.960;2023-03-05T07:40:49;10.23;;;4.77;;
70433;SDS011;57876;47.792;12.960;2023-03-05T07:43:13;10.00;;;4.73;;
70433;SDS011;57876;47.792;12.960;2023-03-05T07:45:38;9.18;;;4.60;;
70433;SDS011;57876;47.792;12.960;2023-03-05T07:48:04;11.37;;;4.87;;
70433;SDS011;57876;47.792;12.960;2023-03-05T07:50:29;10.45;;;5.22;;
70433;SDS011;57876;47.792;12.960;2023-03-05T07:52:55;9.90;;;4.65;;
70433;SDS011;57876;47.792;12.960;2023-03-05T07:55:20;11.03;;;4.87;;
70433;SDS011;57876;47.792;12.960;2023-03-05T07:57:44;10.73;;;5.17;;
70433;SDS011;57876;47.792;12.960;2023-03-05T08:00:09;13.43;;;5.57;;
70433;SDS011;57876;47.792;12.960;2023-03-05T08:02:33;10.63;;;5.20;;
70433;SDS011;57876;47.792;12.960;2023-03-05T08:04:58;11.43;;;5.30;;
70433;SDS011;57876;47.792;12.960;2023-03-05T08:07:22;10.15;;;4.70;;
70433;SDS011;57876;47.792;12.960;2023-03-05T08:09:47;11.67;;;5.10;;
70433;SDS011;57876;47.792;12.960;2023-03-05T08:12:11;10.33;;;4.80;;
70433;SDS011;57876;47.792;12.960;2023-03-05T08:14:36;10.73;;;5.37;;
70433;SDS011;57876;47.792;12.960;2023-03-05T08:17:01;10.85;;;5.32;;
70433;SDS011;57876;47.792;12.960;2023-03-05T08:19:27;10.43;;;4.95;;
70433;SDS011;57876;47.792;12.960;2023-03-05T08:21:52;11.00;;;5.00;;
70433;SDS011;57876;47.792;12.960;2023-03-05T08:24:16;11.83;;;4.93;;
70433;SDS011;57876;47.792;12.960;2023-03-05T08:26:40;10.52;;;4.43;;
70433;SDS011;57876;47.792;12.960;2023-03-05T08:29:05;11.23;;;5.23;;
70433;SDS011;57876;47.792;12.960;2023-03-05T08:31:31;10.68;;;4.85;;
70433;SDS011;57876;47.792;12.960;2023-03-05T08:33:56;9.82;;;4.50;;
70433;SDS011;57876;47.792;12.960;2023-03-05T08:36:22;10.17;;;4.50;;
70433;SDS011;57876;47.792;12.960;2023-03-05T08:38:47;9.07;;;4.15;;
70433;SDS011;57876;47.792;12.960;2023-03-05T08:41:12;8.63;;;3.70;;
70433;SDS011;57876;47.792;12.960;2023-03-05T08:43:37;10.50;;;4.90;;
70433;SDS011;57876;47.792;12.960;2023-03-05T08:46:02;8.43;;;4.00;;
70433;SDS011;57876;47.792;12.960;2023-03-05T08:48:27;9.57;;;4.45;;
70433;SDS011;57876;47.792;12.960;2023-03-05T08:50:51;8.87;;;4.03;;
70433;SDS011;57876;47.792;12.960;2023-03-05T08:53:16;8.30;;;3.97;;
70433;SDS011;57876;47.792;12.960;2023-03-05T08:55:40;10.63;;;4.40;;
70433;SDS011;57876;47.792;12.960;2023-03-05T08:58:05;8.77;;;3.70;;
70433;SDS011;57876;47.792;12.960;2023-03-05T09:00:29;9.47;;;3.87;;
70433;SDS011;57876;47.792;12.960;2023-03-05T09:02:53;8.10;;;3.87;;
70433;SDS011;57876;47.792;12.960;2023-03-05T09:05:18;8.30;;;3.60;;
70433;SDS011;57876;47.792;12.960;2023-03-05T09:07:42;8.07;;;4.30;;
70433;SDS011;57876;47.792;12.960;2023-03-05T09:10:07;9.20;;;4.30;;
70433;SDS011;57876;47.792;12.960;2023-03-05T09:12:34;9.23;;;3.80;;
70433;SDS011;57876;47.792;12.960;2023-03-05T09:14:58;9.23;;;4.17;;
70433;SDS011;57876;47.792;12.960;2023-03-05T09:17:23;9.70;;;4.13;;
70433;SDS011;57876;47.792;12.960;2023-03-05T09:19:47;9.53;;;3.80;;
70433;SDS011;57876;47.792;12.960;2023-03-05T09:22:12;8.20;;;3.67;;
70433;SDS011;57876;47.792;12.960;2023-03-05T09:24:37;8.80;;;3.40;;
70433;SDS011;57876;47.792;12.960;2023-03-05T09:27:01;9.33;;;3.93;;
70433;SDS011;57876;47.792;12.960;2023-03-05T09:29:26;8.70;;;3.37;;
70433;SDS011;57876;47.792;12.960;2023-03-05T09:31:50;8.60;;;3.72;;
70433;SDS011;57876;47.792;12.960;2023-03-05T09:34:15;7.90;;;3.50;;
70433;SDS011;57876;47.792;12.960;2023-03-05T09:36:39;8.43;;;4.27;;
70433;SDS011;57876;47.792;12.960;2023-03-05T09:39:04;9.63;;;3.50;;
70433;SDS011;57876;47.792;12.960;2023-03-05T09:49:42;8.48;;;3.22;;
70433;SDS011;57876;47.792;12.960;2023-03-05T09:52:14;8.43;;;3.50;;
70433;SDS011;57876;47.792;12.960;2023-03-05T09:54:43;8.68;;;3.53;;
70433;SDS011;57876;47.792;12.960;2023-03-05T09:57:14;8.00;;;3.50;;
70433;SDS011;57876;47.792;12.960;2023-03-05T10:00:01;7.63;;;3.20;;
70433;SDS011;57876;47.792;12.960;2023-03-05T10:02:33;8.35;;;2.95;;
70433;SDS011;57876;47.792;12.960;2023-03-05T10:05:11;8.47;;;3.23;;
70433;SDS011;57876;47.792;12.960;2023-03-05T10:07:44;7.63;;;3.10;;
70433;SDS011;57876;47.792;12.960;2023-03-05T10:10:25;9.30;;;3.00;;
70433;SDS011;57876;47.792;12.960;2023-03-05T10:13:09;8.43;;;2.97;;
70433;SDS011;57876;47.792;12.960;2023-03-05T10:15:40;7.70;;;2.88;;
70433;SDS011;57876;47.792;12.960;2023-03-05T10:21:04;7.53;;;3.28;;
70433;SDS011;57876;47.792;12.960;2023-03-05T10:23:40;7.18;;;2.90;;
70433;SDS011;57876;47.792;12.960;2023-03-05T10:34:37;8.25;;;3.20;;
70433;SDS011;57876;47.792;12.960;2023-03-05T10:45:17;6.73;;;2.80;;
70433;SDS011;57876;47.792;12.960;2023-03-05T10:50:24;8.35;;;3.08;;
70433;SDS011;57876;47.792;12.960;2023-03-05T10:53:16;6.03;;;2.22;;
70433;SDS011;57876;47.792;12.960;2023-03-05T10:55:49;7.32;;;2.85;;
70433;SDS011;57876;47.792;12.960;2023-03-05T10:58:22;7.40;;;2.90;;
70433;SDS011;57876;47.792;12.960;2023-03-05T11:01:48;7.22;;;2.90;;
70433;SDS011;57876;47.792;12.960;2023-03-05T11:03:49;6.95;;;2.58;;
70433;SDS011;57876;47.792;12.960;2023-03-05T11:06:25;7.07;;;2.70;;
70433;SDS011;57876;47.792;12.960;2023-03-05T11:14:35;6.32;;;2.40;;
70433;SDS011;57876;47.792;12.960;2023-03-05T11:17:02;6.70;;;2.50;;
70433;SDS011;57876;47.792;12.960;2023-03-05T11:19:45;6.57;;;2.55;;
70433;SDS011;57876;47.792;12.960;2023-03-05T11:22:19;8.23;;;2.60;;
70433;SDS011;57876;47.792;12.960;2023-03-05T11:25:01;7.43;;;2.55;;
70433;SDS011;57876;47.792;12.960;2023-03-05T11:27:48;6.43;;;2.47;;
70433;SDS011;57876;47.792;12.960;2023-03-05T11:30:33;6.47;;;2.40;;
70433;SDS011;57876;47.792;12.960;2023-03-05T11:33:06;6.85;;;2.63;;
70433;SDS011;57876;47.792;12.960;2023-03-05T11:35:38;6.75;;;2.50;;
70433;SDS011;57876;47.792;12.960;2023-03-05T11:38:06;6.68;;;2.47;;
70433;SDS011;57876;47.792;12.960;2023-03-05T11:40:42;6.53;;;2.30;;
70433;SDS011;57876;47.792;12.960;2023-03-05T11:43:08;6.10;;;2.50;;
70433;SDS011;57876;47.792;12.960;2023-03-05T11:45:38;6.10;;;2.47;;
70433;SDS011;57876;47.792;12.960;2023-03-05T11:48:05;6.83;;;2.10;;
70433;SDS011;57876;47.792;12.960;2023-03-05T11:50:32;5.90;;;2.17;;
70433;SDS011;57876;47.792;12.960;2023-03-05T11:53:32;6.60;;;2.45;;
70433;SDS011;57876;47.792;12.960;2023-03-05T11:55:53;6.57;;;2.10;;
70433;SDS011;57876;47.792;12.960;2023-03-05T12:00:55;6.47;;;2.20;;
70433;SDS011;57876;47.792;12.960;2023-03-05T12:03:21;7.32;;;2.40;;
70433;SDS011;57876;47.792;12.960;2023-03-05T12:05:50;5.93;;;2.20;;
70433;SDS011;57876;47.792;12.960;2023-03-05T12:08:28;5.77;;;2.07;;
70433;SDS011;57876;47.792;12.960;2023-03-05T12:10:57;6.40;;;2.30;;
70433;SDS011;57876;47.792;12.960;2023-03-05T12:13:32;5.55;;;2.13;;
70433;SDS011;57876;47.792;12.960;2023-03-05T12:16:02;6.38;;;2.05;;
70433;SDS011;57876;47.792;12.960;2023-03-05T12:19:06;6.97;;;2.45;;
70433;SDS011;57876;47.792;12.960;2023-03-05T12:21:25;6.50;;;2.10;;
70433;SDS011;57876;47.792;12.960;2023-03-05T12:23:58;6.72;;;2.03;;
70433;SDS011;57876;47.792;12.960;2023-03-05T12:29:29;6.13;;;1.85;;
70433;SDS011;57876;47.792;12.960;2023-03-05T12:32:03;5.97;;;2.00;;
70433;SDS011;57876;47.792;12.960;2023-03-05T12:37:02;6.20;;;1.75;;
70433;SDS011;57876;47.792;12.960;2023-03-05T12:39:44;5.60;;;1.80;;
70433;SDS011;57876;47.792;12.960;2023-03-05T12:47:41;5.87;;;1.70;;
70433;SDS011;57876;47.792;12.960;2023-03-05T12:58:16;5.93;;;1.98;;
70433;SDS011;57876;47.792;12.960;2023-03-05T13:00:49;6.03;;;1.83;;
70433;SDS011;57876;47.792;12.960;2023-03-05T13:03:23;5.47;;;1.80;;
70433;SDS011;57876;47.792;12.960;2023-03-05T13:05:55;5.37;;;1.40;;
70433;SDS011;57876;47.792;12.960;2023-03-05T13:08:29;5.47;;;1.70;;
70433;SDS011;57876;47.792;12.960;2023-03-05T13:11:02;5.50;;;1.55;;
70433;SDS011;57876;47.792;12.960;2023-03-05T13:13:30;5.93;;;1.90;;
70433;SDS011;57876;47.792;12.960;2023-03-05T13:15:58;4.95;;;1.60;;
70433;SDS011;57876;47.792;12.960;2023-03-05T13:18:27;5.50;;;1.70;;
70433;SDS011;57876;47.792;12.960;2023-03-05T13:21:05;4.93;;;1.48;;
70433;SDS011;57876;47.792;12.960;2023-03-05T13:23:31;6.07;;;1.75;;
70433;SDS011;57876;47.792;12.960;2023-03-05T13:26:16;5.82;;;1.60;;
70433;SDS011;57876;47.792;12.960;2023-03-05T13:28:42;4.97;;;1.48;;
70433;SDS011;57876;47.792;12.960;2023-03-05T13:31:27;5.00;;;1.40;;
70433;SDS011;57876;47.792;12.960;2023-03-05T13:33:55;6.15;;;1.80;;
70433;SDS011;57876;47.792;12.960;2023-03-05T13:36:23;5.10;;;1.40;;
70433;SDS011;57876;47.792;12.960;2023-03-05T13:38:49;5.75;;;1.60;;
70433;SDS011;57876;47.792;12.960;2023-03-05T13:43:42;5.27;;;1.50;;
70433;SDS011;57876;47.792;12.960;2023-03-05T13:46:07;5.13;;;1.63;;
70433;SDS011;57876;47.792;12.960;2023-03-05T13:48:32;5.33;;;1.70;;
70433;SDS011;57876;47.792;12.960;2023-03-05T13:50:56;5.10;;;1.60;;
70433;SDS011;57876;47.792;12.960;2023-03-05T13:53:28;5.78;;;1.40;;
70433;SDS011;57876;47.792;12.960;2023-03-05T13:56:04;5.53;;;1.50;;
70433;SDS011;57876;47.792;12.960;2023-03-05T14:03:54;5.95;;;1.80;;
70433;SDS011;57876;47.792;12.960;2023-03-05T14:06:26;6.15;;;1.67;;
70433;SDS011;57876;47.792;12.960;2023-03-05T14:08:53;4.70;;;1.42;;
70433;SDS011;57876;47.792;12.960;2023-03-05T14:11:22;5.00;;;1.40;;
70433;SDS011;57876;47.792;12.960;2023-03-05T14:13:47;5.00;;;1.40;;
70433;SDS011;57876;47.792;12.960;2023-03-05T14:16:12;5.13;;;1.50;;
70433;SDS011;57876;47.792;12.960;2023-03-05T14:18:56;6.43;;;1.60;;
70433;SDS011;57876;47.792;12.960;2023-03-05T14:21:22;5.15;;;1.27;;
70433;SDS011;57876;47.792;12.960;2023-03-05T14:23:48;5.00;;;1.40;;
70433;SDS011;57876;47.792;12.960;2023-03-05T14:26:23;5.20;;;1.50;;
70433;SDS011;57876;47.792;12.960;2023-03-05T14:28:54;5.35;;;1.50;;
70433;SDS011;57876;47.792;12.960;2023-03-05T14:31:23;5.63;;;1.50;;
70433;SDS011;57876;47.792;12.960;2023-03-05T14:33:49;4.95;;;1.40;;
70433;SDS011;57876;47.792;12.960;2023-03-05T14:36:19;5.00;;;1.50;;
70433;SDS011;57876;47.792;12.960;2023-03-05T14:38:45;4.85;;;1.50;;
70433;SDS011;57876;47.792;12.960;2023-03-05T14:43:59;5.18;;;1.60;;
70433;SDS011;57876;47.792;12.960;2023-03-05T14:46:23;5.85;;;1.67;;
70433;SDS011;57876;47.792;12.960;2023-03-05T14:48:48;4.83;;;1.40;;
70433;SDS011;57876;47.792;12.960;2023-03-05T14:51:12;5.47;;;1.53;;
70433;SDS011;57876;47.792;12.960;2023-03-05T14:53:43;5.10;;;1.38;;
70433;SDS011;57876;47.792;12.960;2023-03-05T14:56:16;4.70;;;1.53;;
70433;SDS011;57876;47.792;12.960;2023-03-05T14:58:46;5.72;;;1.50;;
70433;SDS011;57876;47.792;12.960;2023-03-05T15:01:10;6.30;;;1.80;;
70433;SDS011;57876;47.792;12.960;2023-03-05T15:03:35;5.00;;;1.50;;
70433;SDS011;57876;47.792;12.960;2023-03-05T15:06:01;5.90;;;1.70;;
70433;SDS011;57876;47.792;12.960;2023-03-05T15:08:26;5.93;;;1.80;;
70433;SDS011;57876;47.792;12.960;2023-03-05T15:10:53;4.80;;;1.40;;
70433;SDS011;57876;47.792;12.960;2023-03-05T15:13:18;6.05;;;1.45;;
70433;SDS011;57876;47.792;12.960;2023-03-05T15:15:43;5.97;;;1.67;;
70433;SDS011;57876;47.792;12.960;2023-03-05T15:18:13;5.35;;;1.50;;
70433;SDS011;57876;47.792;12.960;2023-03-05T15:20:39;5.53;;;1.60;;
70433;SDS011;57876;47.792;12.960;2023-03-05T15:23:03;5.63;;;1.53;;
70433;SDS011;57876;47.792;12.960;2023-03-05T15:25:28;5.50;;;1.70;;
70433;SDS011;57876;47.792;12.960;2023-03-05T15:27:53;5.75;;;1.55;;
70433;SDS011;57876;47.792;12.960;2023-03-05T15:30:22;4.80;;;1.40;;
70433;SDS011;57876;47.792;12.960;2023-03-05T15:32:49;5.68;;;1.60;;
70433;SDS011;57876;47.792;12.960;2023-03-05T15:35:14;5.43;;;1.85;;
70433;SDS011;57876;47.792;12.960;2023-03-05T15:37:38;4.83;;;1.43;;
70433;SDS011;57876;47.792;12.960;2023-03-05T15:40:03;5.10;;;1.60;;
70433;SDS011;57876;47.792;12.960;2023-03-05T15:42:27;5.93;;;1.35;;
70433;SDS011;57876;47.792;12.960;2023-03-05T15:44:52;5.10;;;1.63;;